Whiteland, Indiana
Current Conditions -  °F | °C
As of 3:54 AM on Wednesday 22 Oct 2014 (Local Time) from KIND Reporting Station
Clear Clear  
Wind Chill: 38°   Ceiling: Unl
Heat Index: 42°   Visibility: 10mi
Dew Point: 34°   Wind: 7mph
Humidity: 73%   Direction: 360°N
Pressure: 30.23"   Gusts: NA
Location:  39.55°N, 86.08°W
Report Text: KIND 220754Z 36006KT 10SM CLR 06/01 A3023 RMK AO2 SLP237 T00560011
Loading
Personal Weather Stations






























Interactive Weather Map
Tropical Storm Tracking
New forecast layout! Learn more

10-Day Weather Forecast

Advertisements
Track Severe Weather on mobile